sensor_id;sensor_type;location;lat;lon;timestamp;temperature;humidity
25332;DHT22;13284;52.748;13.452;2023-12-20T00:01:54;7.10;99.90
25332;DHT22;13284;52.748;13.452;2023-12-20T00:04:20;7.10;99.90
25332;DHT22;13284;52.748;13.452;2023-12-20T00:06:45;7.10;99.90
25332;DHT22;13284;52.748;13.452;2023-12-20T00:09:10;7.10;99.90
25332;DHT22;13284;52.748;13.452;2023-12-20T00:11:36;7.10;99.90
25332;DHT22;13284;52.748;13.452;2023-12-20T00:14:01;7.20;99.90
25332;DHT22;13284;52.748;13.452;2023-12-20T00:16:27;7.10;99.90
25332;DHT22;13284;52.748;13.452;2023-12-20T00:18:53;7.20;99.90
25332;DHT22;13284;52.748;13.452;2023-12-20T00:21:18;7.10;99.90
25332;DHT22;13284;52.748;13.452;2023-12-20T00:23:44;7.10;99.90
25332;DHT22;13284;52.748;13.452;2023-12-20T00:26:09;7.10;99.90
25332;DHT22;13284;52.748;13.452;2023-12-20T00:28:35;7.10;99.90
25332;DHT22;13284;52.748;13.452;2023-12-20T00:31:00;7.10;99.90
25332;DHT22;13284;52.748;13.452;2023-12-20T00:33:26;7.20;99.90
25332;DHT22;13284;52.748;13.452;2023-12-20T00:35:51;7.20;99.90
25332;DHT22;13284;52.748;13.452;2023-12-20T00:38:16;7.20;99.90
25332;DHT22;13284;52.748;13.452;2023-12-20T00:40:42;7.10;99.90
25332;DHT22;13284;52.748;13.452;2023-12-20T00:43:07;7.20;99.90
25332;DHT22;13284;52.748;13.452;2023-12-20T00:45:33;7.10;99.90
25332;DHT22;13284;52.748;13.452;2023-12-20T00:47:58;7.10;99.90
25332;DHT22;13284;52.748;13.452;2023-12-20T00:50:24;7.10;99.90
25332;DHT22;13284;52.748;13.452;2023-12-20T00:52:50;7.10;99.90
25332;DHT22;13284;52.748;13.452;2023-12-20T00:55:15;7.10;99.90
25332;DHT22;13284;52.748;13.452;2023-12-20T00:57:41;7.20;99.90
25332;DHT22;13284;52.748;13.452;2023-12-20T01:00:06;7.10;99.90
25332;DHT22;13284;52.748;13.452;2023-12-20T01:02:35;7.10;99.90
25332;DHT22;13284;52.748;13.452;2023-12-20T01:05:00;7.20;99.90
25332;DHT22;13284;52.748;13.452;2023-12-20T01:07:26;7.10;99.90
25332;DHT22;13284;52.748;13.452;2023-12-20T01:09:51;7.10;99.90
25332;DHT22;13284;52.748;13.452;2023-12-20T01:12:16;7.20;99.90
25332;DHT22;13284;52.748;13.452;2023-12-20T01:14:42;7.10;99.90
25332;DHT22;13284;52.748;13.452;2023-12-20T01:17:07;7.20;99.90
25332;DHT22;13284;52.748;13.452;2023-12-20T01:19:33;7.20;99.90
25332;DHT22;13284;52.748;13.452;2023-12-20T01:21:58;7.20;99.90
25332;DHT22;13284;52.748;13.452;2023-12-20T01:24:24;7.20;99.90
25332;DHT22;13284;52.748;13.452;2023-12-20T01:26:49;7.20;99.90
25332;DHT22;13284;52.748;13.452;2023-12-20T01:29:15;7.20;99.90
25332;DHT22;13284;52.748;13.452;2023-12-20T01:31:41;7.20;99.90
25332;DHT22;13284;52.748;13.452;2023-12-20T01:34:06;7.20;99.90
25332;DHT22;13284;52.748;13.452;2023-12-20T01:36:32;7.20;99.90
25332;DHT22;13284;52.748;13.452;2023-12-20T01:39:00;7.20;99.90
25332;DHT22;13284;52.748;13.452;2023-12-20T01:41:26;7.20;99.90
25332;DHT22;13284;52.748;13.452;2023-12-20T01:43:51;7.20;99.90
25332;DHT22;13284;52.748;13.452;2023-12-20T01:46:19;7.20;99.90
25332;DHT22;13284;52.748;13.452;2023-12-20T01:48:45;7.20;99.90
25332;DHT22;13284;52.748;13.452;2023-12-20T01:51:11;7.20;99.90
25332;DHT22;13284;52.748;13.452;2023-12-20T01:53:36;7.20;99.90
25332;DHT22;13284;52.748;13.452;2023-12-20T01:56:02;7.10;99.90
25332;DHT22;13284;52.748;13.452;2023-12-20T01:58:28;7.10;99.90
25332;DHT22;13284;52.748;13.452;2023-12-20T02:00:54;7.10;99.90
25332;DHT22;13284;52.748;13.452;2023-12-20T02:03:21;7.10;99.90
25332;DHT22;13284;52.748;13.452;2023-12-20T02:05:47;7.10;99.90
25332;DHT22;13284;52.748;13.452;2023-12-20T02:08:13;7.10;99.90
25332;DHT22;13284;52.748;13.452;2023-12-20T02:10:39;7.10;99.90
25332;DHT22;13284;52.748;13.452;2023-12-20T02:13:06;7.00;99.90
25332;DHT22;13284;52.748;13.452;2023-12-20T02:15:31;7.00;99.90
25332;DHT22;13284;52.748;13.452;2023-12-20T02:17:57;7.00;99.90
25332;DHT22;13284;52.748;13.452;2023-12-20T02:20:22;7.00;99.90
25332;DHT22;13284;52.748;13.452;2023-12-20T02:22:48;7.00;99.90
25332;DHT22;13284;52.748;13.452;2023-12-20T02:25:13;7.00;99.90
25332;DHT22;13284;52.748;13.452;2023-12-20T02:27:39;7.00;99.90
25332;DHT22;13284;52.748;13.452;2023-12-20T02:30:07;6.90;99.90
25332;DHT22;13284;52.748;13.452;2023-12-20T02:32:32;7.00;99.90
25332;DHT22;13284;52.748;13.452;2023-12-20T02:34:58;6.90;99.90
25332;DHT22;13284;52.748;13.452;2023-12-20T02:37:24;6.90;99.90
25332;DHT22;13284;52.748;13.452;2023-12-20T02:39:49;6.90;99.90
25332;DHT22;13284;52.748;13.452;2023-12-20T02:42:15;6.90;99.90
25332;DHT22;13284;52.748;13.452;2023-12-20T02:44:40;6.80;99.90
25332;DHT22;13284;52.748;13.452;2023-12-20T02:47:06;6.80;99.90
25332;DHT22;13284;52.748;13.452;2023-12-20T02:49:31;6.80;99.90
25332;DHT22;13284;52.748;13.452;2023-12-20T02:51:57;6.70;99.90
25332;DHT22;13284;52.748;13.452;2023-12-20T02:54:22;6.80;99.90
25332;DHT22;13284;52.748;13.452;2023-12-20T02:56:48;6.80;99.90
25332;DHT22;13284;52.748;13.452;2023-12-20T02:59:13;6.70;99.90
25332;DHT22;13284;52.748;13.452;2023-12-20T03:01:43;6.70;99.90
25332;DHT22;13284;52.748;13.452;2023-12-20T03:04:08;6.80;99.90
25332;DHT22;13284;52.748;13.452;2023-12-20T03:06:34;6.80;99.90
25332;DHT22;13284;52.748;13.452;2023-12-20T03:08:59;6.80;99.90
25332;DHT22;13284;52.748;13.452;2023-12-20T03:11:28;6.80;99.90
25332;DHT22;13284;52.748;13.452;2023-12-20T03:13:54;6.80;99.90
25332;DHT22;13284;52.748;13.452;2023-12-20T03:16:20;6.80;99.90
25332;DHT22;13284;52.748;13.452;2023-12-20T03:18:45;6.70;99.90
25332;DHT22;13284;52.748;13.452;2023-12-20T03:21:11;6.70;99.90
25332;DHT22;13284;52.748;13.452;2023-12-20T03:23:36;6.70;99.90
25332;DHT22;13284;52.748;13.452;2023-12-20T03:26:02;6.70;99.90
25332;DHT22;13284;52.748;13.452;2023-12-20T03:28:28;6.60;99.90
25332;DHT22;13284;52.748;13.452;2023-12-20T03:30:53;6.60;99.90
25332;DHT22;13284;52.748;13.452;2023-12-20T03:33:19;6.60;99.90
25332;DHT22;13284;52.748;13.452;2023-12-20T03:35:44;6.50;99.90
25332;DHT22;13284;52.748;13.452;2023-12-20T03:38:10;6.50;99.90
25332;DHT22;13284;52.748;13.452;2023-12-20T03:40:35;6.50;99.90
25332;DHT22;13284;52.748;13.452;2023-12-20T03:43:01;6.40;99.90
25332;DHT22;13284;52.748;13.452;2023-12-20T03:45:26;6.40;99.90
25332;DHT22;13284;52.748;13.452;2023-12-20T03:47:52;6.30;99.90
25332;DHT22;13284;52.748;13.452;2023-12-20T03:50:25;6.30;99.90
25332;DHT22;13284;52.748;13.452;2023-12-20T03:52:51;6.30;99.90
25332;DHT22;13284;52.748;13.452;2023-12-20T03:55:17;6.20;99.90
25332;DHT22;13284;52.748;13.452;2023-12-20T03:57:42;6.20;99.90
25332;DHT22;13284;52.748;13.452;2023-12-20T04:00:08;6.20;99.90
25332;DHT22;13284;52.748;13.452;2023-12-20T04:02:38;6.10;99.90
25332;DHT22;13284;52.748;13.452;2023-12-20T04:05:04;6.10;99.90
25332;DHT22;13284;52.748;13.452;2023-12-20T04:07:30;6.10;99.90
25332;DHT22;13284;52.748;13.452;2023-12-20T04:09:55;6.10;99.90
25332;DHT22;13284;52.748;13.452;2023-12-20T04:12:21;6.00;99.90
25332;DHT22;13284;52.748;13.452;2023-12-20T04:14:46;6.00;99.90
25332;DHT22;13284;52.748;13.452;2023-12-20T04:17:13;5.90;99.90
25332;DHT22;13284;52.748;13.452;2023-12-20T04:19:41;5.90;99.90
25332;DHT22;13284;52.748;13.452;2023-12-20T04:22:06;5.90;99.90
25332;DHT22;13284;52.748;13.452;2023-12-20T04:24:32;5.90;99.90
25332;DHT22;13284;52.748;13.452;2023-12-20T04:26:57;5.90;99.90
25332;DHT22;13284;52.748;13.452;2023-12-20T04:29:23;5.80;99.90
25332;DHT22;13284;52.748;13.452;2023-12-20T04:31:49;5.80;99.90
25332;DHT22;13284;52.748;13.452;2023-12-20T04:34:16;5.80;99.90
25332;DHT22;13284;52.748;13.452;2023-12-20T04:36:42;5.70;99.90
25332;DHT22;13284;52.748;13.452;2023-12-20T04:39:07;5.70;99.90
25332;DHT22;13284;52.748;13.452;2023-12-20T04:41:33;5.80;99.90
25332;DHT22;13284;52.748;13.452;2023-12-20T04:43:58;5.80;99.90
25332;DHT22;13284;52.748;13.452;2023-12-20T04:46:24;5.80;99.90
25332;DHT22;13284;52.748;13.452;2023-12-20T04:48:49;5.90;99.90
25332;DHT22;13284;52.748;13.452;2023-12-20T04:51:15;5.80;99.90
25332;DHT22;13284;52.748;13.452;2023-12-20T04:53:40;5.90;99.90
25332;DHT22;13284;52.748;13.452;2023-12-20T04:56:06;5.90;99.90
25332;DHT22;13284;52.748;13.452;2023-12-20T04:58:31;5.90;99.90
25332;DHT22;13284;52.748;13.452;2023-12-20T05:00:57;5.90;99.90
25332;DHT22;13284;52.748;13.452;2023-12-20T05:03:22;5.90;99.90
25332;DHT22;13284;52.748;13.452;2023-12-20T05:05:48;5.90;99.90
25332;DHT22;13284;52.748;13.452;2023-12-20T05:08:13;5.90;99.90
25332;DHT22;13284;52.748;13.452;2023-12-20T05:10:39;5.80;99.90
25332;DHT22;13284;52.748;13.452;2023-12-20T05:13:05;5.90;99.90
25332;DHT22;13284;52.748;13.452;2023-12-20T05:15:31;5.80;99.90
25332;DHT22;13284;52.748;13.452;2023-12-20T05:17:56;5.80;99.90
25332;DHT22;13284;52.748;13.452;2023-12-20T05:20:22;5.70;99.90
25332;DHT22;13284;52.748;13.452;2023-12-20T05:22:48;5.70;99.90
25332;DHT22;13284;52.748;13.452;2023-12-20T05:25:14;5.60;99.90
25332;DHT22;13284;52.748;13.452;2023-12-20T05:27:39;5.60;99.90
25332;DHT22;13284;52.748;13.452;2023-12-20T05:30:06;5.60;99.90
25332;DHT22;13284;52.748;13.452;2023-12-20T05:32:31;5.50;99.90
25332;DHT22;13284;52.748;13.452;2023-12-20T05:34:57;5.50;99.90
25332;DHT22;13284;52.748;13.452;2023-12-20T05:37:22;5.40;99.90
25332;DHT22;13284;52.748;13.452;2023-12-20T05:39:48;5.40;99.90
25332;DHT22;13284;52.748;13.452;2023-12-20T05:42:13;5.30;99.90
25332;DHT22;13284;52.748;13.452;2023-12-20T05:44:39;5.20;99.90
25332;DHT22;13284;52.748;13.452;2023-12-20T05:47:04;5.20;99.90
25332;DHT22;13284;52.748;13.452;2023-12-20T05:49:30;5.20;99.90
25332;DHT22;13284;52.748;13.452;2023-12-20T05:51:55;5.20;99.90
25332;DHT22;13284;52.748;13.452;2023-12-20T05:54:21;5.20;99.90
25332;DHT22;13284;52.748;13.452;2023-12-20T05:56:47;5.20;99.90
25332;DHT22;13284;52.748;13.452;2023-12-20T05:59:12;5.20;99.90
25332;DHT22;13284;52.748;13.452;2023-12-20T06:01:39;5.20;99.90
25332;DHT22;13284;52.748;13.452;2023-12-20T06:04:04;5.20;99.90
25332;DHT22;13284;52.748;13.452;2023-12-20T06:06:30;5.20;99.90
25332;DHT22;13284;52.748;13.452;2023-12-20T06:08:56;5.20;99.90
25332;DHT22;13284;52.748;13.452;2023-12-20T06:11:21;5.10;99.90
25332;DHT22;13284;52.748;13.452;2023-12-20T06:13:47;5.10;99.90
25332;DHT22;13284;52.748;13.452;2023-12-20T06:16:14;5.00;99.90
25332;DHT22;13284;52.748;13.452;2023-12-20T06:18:40;5.00;99.90
25332;DHT22;13284;52.748;13.452;2023-12-20T06:21:05;5.00;99.90
25332;DHT22;13284;52.748;13.452;2023-12-20T06:23:32;5.00;99.90
25332;DHT22;13284;52.748;13.452;2023-12-20T06:25:58;5.00;99.90
25332;DHT22;13284;52.748;13.452;2023-12-20T06:28:23;4.90;99.90
25332;DHT22;13284;52.748;13.452;2023-12-20T06:30:49;5.00;99.90
25332;DHT22;13284;52.748;13.452;2023-12-20T06:33:15;5.00;99.90
25332;DHT22;13284;52.748;13.452;2023-12-20T06:35:40;5.00;99.90
25332;DHT22;13284;52.748;13.452;2023-12-20T06:38:06;5.00;99.90
25332;DHT22;13284;52.748;13.452;2023-12-20T06:40:32;5.00;99.90
25332;DHT22;13284;52.748;13.452;2023-12-20T06:42:57;5.00;99.90
25332;DHT22;13284;52.748;13.452;2023-12-20T06:45:23;5.00;99.90
25332;DHT22;13284;52.748;13.452;2023-12-20T06:47:48;5.00;99.90
25332;DHT22;13284;52.748;13.452;2023-12-20T06:50:14;5.00;99.90
25332;DHT22;13284;52.748;13.452;2023-12-20T06:52:39;5.00;99.90
25332;DHT22;13284;52.748;13.452;2023-12-20T06:55:05;5.00;99.90
25332;DHT22;13284;52.748;13.452;2023-12-20T06:57:30;5.00;99.90
25332;DHT22;13284;52.748;13.452;2023-12-20T06:59:56;5.10;99.90
25332;DHT22;13284;52.748;13.452;2023-12-20T07:02:23;5.10;99.90
25332;DHT22;13284;52.748;13.452;2023-12-20T07:04:48;5.10;99.90
25332;DHT22;13284;52.748;13.452;2023-12-20T07:07:14;5.10;99.90
25332;DHT22;13284;52.748;13.452;2023-12-20T07:09:39;5.10;99.90
25332;DHT22;13284;52.748;13.452;2023-12-20T07:12:08;5.10;99.90
25332;DHT22;13284;52.748;13.452;2023-12-20T07:14:33;5.10;99.90
25332;DHT22;13284;52.748;13.452;2023-12-20T07:16:59;5.20;99.90
25332;DHT22;13284;52.748;13.452;2023-12-20T07:19:24;5.20;99.90
25332;DHT22;13284;52.748;13.452;2023-12-20T07:21:50;5.20;99.90
25332;DHT22;13284;52.748;13.452;2023-12-20T07:24:15;5.20;99.90
25332;DHT22;13284;52.748;13.452;2023-12-20T07:26:41;5.20;99.90
25332;DHT22;13284;52.748;13.452;2023-12-20T07:29:06;5.30;99.90
25332;DHT22;13284;52.748;13.452;2023-12-20T07:31:32;5.20;99.90
25332;DHT22;13284;52.748;13.452;2023-12-20T07:33:57;5.20;99.90
25332;DHT22;13284;52.748;13.452;2023-12-20T07:36:23;5.20;99.90
25332;DHT22;13284;52.748;13.452;2023-12-20T07:38:49;5.30;99.90
25332;DHT22;13284;52.748;13.452;2023-12-20T07:41:14;5.30;99.90
25332;DHT22;13284;52.748;13.452;2023-12-20T07:43:41;5.30;99.90
25332;DHT22;13284;52.748;13.452;2023-12-20T07:46:10;5.30;99.90
25332;DHT22;13284;52.748;13.452;2023-12-20T07:51:57;5.30;99.90
25332;DHT22;13284;52.748;13.452;2023-12-20T07:54:23;5.30;99.90
25332;DHT22;13284;52.748;13.452;2023-12-20T07:56:49;5.40;99.90
25332;DHT22;13284;52.748;13.452;2023-12-20T07:59:14;5.30;99.90
25332;DHT22;13284;52.748;13.452;2023-12-20T08:01:40;5.30;99.90
25332;DHT22;13284;52.748;13.452;2023-12-20T08:04:05;5.30;99.90
25332;DHT22;13284;52.748;13.452;2023-12-20T08:06:31;5.40;99.90
25332;DHT22;13284;52.748;13.452;2023-12-20T08:08:57;5.40;99.90
25332;DHT22;13284;52.748;13.452;2023-12-20T08:11:22;5.40;99.90
25332;DHT22;13284;52.748;13.452;2023-12-20T08:13:48;5.40;99.90
25332;DHT22;13284;52.748;13.452;2023-12-20T08:16:13;5.40;99.90
25332;DHT22;13284;52.748;13.452;2023-12-20T08:18:40;5.40;99.90
25332;DHT22;13284;52.748;13.452;2023-12-20T08:21:06;5.50;99.90
25332;DHT22;13284;52.748;13.452;2023-12-20T08:23:33;5.50;99.90
25332;DHT22;13284;52.748;13.452;2023-12-20T08:26:06;5.50;99.90
25332;DHT22;13284;52.748;13.452;2023-12-20T08:28:32;5.50;99.90
25332;DHT22;13284;52.748;13.452;2023-12-20T08:30:57;5.50;99.90
25332;DHT22;13284;52.748;13.452;2023-12-20T08:33:23;5.50;99.90
25332;DHT22;13284;52.748;13.452;2023-12-20T08:35:48;5.50;99.90
25332;DHT22;13284;52.748;13.452;2023-12-20T08:38:14;5.50;99.90
25332;DHT22;13284;52.748;13.452;2023-12-20T08:40:39;5.50;99.90
25332;DHT22;13284;52.748;13.452;2023-12-20T08:43:05;5.50;99.90
25332;DHT22;13284;52.748;13.452;2023-12-20T08:45:30;5.60;99.90
25332;DHT22;13284;52.748;13.452;2023-12-20T08:47:56;5.60;99.90
25332;DHT22;13284;52.748;13.452;2023-12-20T08:50:21;5.60;99.90
25332;DHT22;13284;52.748;13.452;2023-12-20T08:52:47;5.60;99.90
25332;DHT22;13284;52.748;13.452;2023-12-20T08:55:12;5.60;99.90
25332;DHT22;13284;52.748;13.452;2023-12-20T08:57:38;5.60;99.90
25332;DHT22;13284;52.748;13.452;2023-12-20T09:00:04;5.60;99.90
25332;DHT22;13284;52.748;13.452;2023-12-20T09:02:30;5.70;99.90
25332;DHT22;13284;52.748;13.452;2023-12-20T09:04:55;5.70;99.90
25332;DHT22;13284;52.748;13.452;2023-12-20T09:07:25;5.80;99.90
25332;DHT22;13284;52.748;13.452;2023-12-20T09:09:51;5.80;99.90
25332;DHT22;13284;52.748;13.452;2023-12-20T09:12:18;5.80;99.90
25332;DHT22;13284;52.748;13.452;2023-12-20T09:14:45;5.90;99.90
25332;DHT22;13284;52.748;13.452;2023-12-20T09:17:10;5.80;99.90
25332;DHT22;13284;52.748;13.452;2023-12-20T09:19:38;5.90;99.90
25332;DHT22;13284;52.748;13.452;2023-12-20T09:22:04;5.90;99.90
25332;DHT22;13284;52.748;13.452;2023-12-20T09:24:30;5.90;99.90
25332;DHT22;13284;52.748;13.452;2023-12-20T09:26:56;5.90;99.90
25332;DHT22;13284;52.748;13.452;2023-12-20T09:29:21;5.90;99.90
25332;DHT22;13284;52.748;13.452;2023-12-20T09:31:47;5.90;99.90
25332;DHT22;13284;52.748;13.452;2023-12-20T09:34:15;5.90;99.90
25332;DHT22;13284;52.748;13.452;2023-12-20T09:36:40;5.90;99.90
25332;DHT22;13284;52.748;13.452;2023-12-20T09:39:13;5.90;99.90
25332;DHT22;13284;52.748;13.452;2023-12-20T09:41:43;5.90;99.90
25332;DHT22;13284;52.748;13.452;2023-12-20T09:44:14;6.00;99.90
25332;DHT22;13284;52.748;13.452;2023-12-20T09:46:43;6.00;99.90
25332;DHT22;13284;52.748;13.452;2023-12-20T09:49:10;6.00;99.90
25332;DHT22;13284;52.748;13.452;2023-12-20T09:51:36;6.00;99.90
25332;DHT22;13284;52.748;13.452;2023-12-20T09:54:03;6.00;99.90
25332;DHT22;13284;52.748;13.452;2023-12-20T09:56:30;6.00;99.90
25332;DHT22;13284;52.748;13.452;2023-12-20T09:58:55;6.10;99.90
25332;DHT22;13284;52.748;13.452;2023-12-20T10:01:21;6.00;99.90
25332;DHT22;13284;52.748;13.452;2023-12-20T10:03:47;6.00;99.90
25332;DHT22;13284;52.748;13.452;2023-12-20T10:06:13;6.00;99.90
25332;DHT22;13284;52.748;13.452;2023-12-20T10:08:39;6.00;99.90
25332;DHT22;13284;52.748;13.452;2023-12-20T10:11:05;6.00;99.90
25332;DHT22;13284;52.748;13.452;2023-12-20T10:13:31;6.00;99.90
25332;DHT22;13284;52.748;13.452;2023-12-20T10:15:56;6.10;99.90
25332;DHT22;13284;52.748;13.452;2023-12-20T10:18:22;6.20;99.90
25332;DHT22;13284;52.748;13.452;2023-12-20T10:20:48;6.20;99.90
25332;DHT22;13284;52.748;13.452;2023-12-20T10:23:15;6.20;99.90
25332;DHT22;13284;52.748;13.452;2023-12-20T10:25:41;6.30;99.90
25332;DHT22;13284;52.748;13.452;2023-12-20T10:28:11;6.20;99.90
25332;DHT22;13284;52.748;13.452;2023-12-20T10:30:38;6.30;99.90
25332;DHT22;13284;52.748;13.452;2023-12-20T10:33:06;6.30;99.90
25332;DHT22;13284;52.748;13.452;2023-12-20T10:35:32;6.30;99.90
25332;DHT22;13284;52.748;13.452;2023-12-20T10:37:58;6.40;99.90
25332;DHT22;13284;52.748;13.452;2023-12-20T10:40:27;6.50;99.90
25332;DHT22;13284;52.748;13.452;2023-12-20T10:42:56;6.50;99.90
25332;DHT22;13284;52.748;13.452;2023-12-20T10:45:22;6.50;99.90
25332;DHT22;13284;52.748;13.452;2023-12-20T10:47:50;6.50;99.90
25332;DHT22;13284;52.748;13.452;2023-12-20T10:50:16;6.40;99.90
25332;DHT22;13284;52.748;13.452;2023-12-20T10:52:42;6.40;99.90
25332;DHT22;13284;52.748;13.452;2023-12-20T10:55:10;6.30;99.90
25332;DHT22;13284;52.748;13.452;2023-12-20T10:57:36;6.30;99.90
25332;DHT22;13284;52.748;13.452;2023-12-20T11:00:03;6.20;99.90
25332;DHT22;13284;52.748;13.452;2023-12-20T11:02:38;6.20;99.90
25332;DHT22;13284;52.748;13.452;2023-12-20T11:05:40;6.20;99.90
25332;DHT22;13284;52.748;13.452;2023-12-20T11:10:51;6.30;99.90
25332;DHT22;13284;52.748;13.452;2023-12-20T11:13:28;6.40;99.90
25332;DHT22;13284;52.748;13.452;2023-12-20T11:15:56;6.40;99.90
25332;DHT22;13284;52.748;13.452;2023-12-20T11:18:31;6.30;99.90
25332;DHT22;13284;52.748;13.452;2023-12-20T11:21:01;6.30;99.90
25332;DHT22;13284;52.748;13.452;2023-12-20T11:23:30;6.40;99.90
25332;DHT22;13284;52.748;13.452;2023-12-20T11:25:57;6.40;99.90
25332;DHT22;13284;52.748;13.452;2023-12-20T11:28:37;6.40;99.90
25332;DHT22;13284;52.748;13.452;2023-12-20T11:31:16;6.30;99.90
25332;DHT22;13284;52.748;13.452;2023-12-20T11:33:46;6.30;99.90
25332;DHT22;13284;52.748;13.452;2023-12-20T11:36:15;6.30;99.90
25332;DHT22;13284;52.748;13.452;2023-12-20T11:38:56;6.30;99.90
25332;DHT22;13284;52.748;13.452;2023-12-20T11:41:26;6.30;99.90
25332;DHT22;13284;52.748;13.452;2023-12-20T11:43:58;6.30;99.90
25332;DHT22;13284;52.748;13.452;2023-12-20T11:46:26;6.30;99.90
25332;DHT22;13284;52.748;13.452;2023-12-20T11:48:52;6.30;99.90
25332;DHT22;13284;52.748;13.452;2023-12-20T11:51:17;6.30;99.90
25332;DHT22;13284;52.748;13.452;2023-12-20T11:53:51;6.30;99.90
25332;DHT22;13284;52.748;13.452;2023-12-20T11:56:17;6.30;99.90
25332;DHT22;13284;52.748;13.452;2023-12-20T11:58:43;6.30;99.90
25332;DHT22;13284;52.748;13.452;2023-12-20T12:01:13;6.30;99.90
25332;DHT22;13284;52.748;13.452;2023-12-20T12:03:38;6.30;99.90
25332;DHT22;13284;52.748;13.452;2023-12-20T12:06:05;6.30;99.90
25332;DHT22;13284;52.748;13.452;2023-12-20T12:08:31;6.20;99.90
25332;DHT22;13284;52.748;13.452;2023-12-20T12:10:57;6.20;99.90
25332;DHT22;13284;52.748;13.452;2023-12-20T12:13:23;6.20;99.90
25332;DHT22;13284;52.748;13.452;2023-12-20T12:15:53;6.20;99.90
25332;DHT22;13284;52.748;13.452;2023-12-20T12:18:19;6.10;99.90
25332;DHT22;13284;52.748;13.452;2023-12-20T12:20:44;6.10;99.90
25332;DHT22;13284;52.748;13.452;2023-12-20T12:23:11;6.10;99.90
25332;DHT22;13284;52.748;13.452;2023-12-20T12:25:36;6.10;99.90
25332;DHT22;13284;52.748;13.452;2023-12-20T12:28:03;6.10;99.90
25332;DHT22;13284;52.748;13.452;2023-12-20T12:30:29;6.10;99.90
25332;DHT22;13284;52.748;13.452;2023-12-20T12:32:57;6.10;99.90
25332;DHT22;13284;52.748;13.452;2023-12-20T12:35:25;6.10;99.90
25332;DHT22;13284;52.748;13.452;2023-12-20T12:37:51;6.10;99.90
25332;DHT22;13284;52.748;13.452;2023-12-20T12:40:17;6.10;99.90
25332;DHT22;13284;52.748;13.452;2023-12-20T12:42:44;6.00;99.90
25332;DHT22;13284;52.748;13.452;2023-12-20T12:45:10;6.00;99.90
25332;DHT22;13284;52.748;13.452;2023-12-20T12:47:39;6.00;99.90
25332;DHT22;13284;52.748;13.452;2023-12-20T12:50:05;6.00;99.90
25332;DHT22;13284;52.748;13.452;2023-12-20T12:52:31;6.00;99.90
25332;DHT22;13284;52.748;13.452;2023-12-20T12:54:56;5.90;99.90
25332;DHT22;13284;52.748;13.452;2023-12-20T12:57:22;5.80;99.90
25332;DHT22;13284;52.748;13.452;2023-12-20T12:59:47;5.40;99.90
25332;DHT22;13284;52.748;13.452;2023-12-20T13:02:14;4.80;99.90
25332;DHT22;13284;52.748;13.452;2023-12-20T13:04:43;4.70;99.90
25332;DHT22;13284;52.748;13.452;2023-12-20T13:07:09;4.70;99.90
25332;DHT22;13284;52.748;13.452;2023-12-20T13:09:38;4.80;99.90
25332;DHT22;13284;52.748;13.452;2023-12-20T13:12:04;4.80;99.90
25332;DHT22;13284;52.748;13.452;2023-12-20T13:14:33;4.80;99.90
25332;DHT22;13284;52.748;13.452;2023-12-20T13:16:58;4.70;99.90
25332;DHT22;13284;52.748;13.452;2023-12-20T13:19:24;4.70;99.90
25332;DHT22;13284;52.748;13.452;2023-12-20T13:21:50;4.70;99.90
25332;DHT22;13284;52.748;13.452;2023-12-20T13:24:15;4.70;99.90
25332;DHT22;13284;52.748;13.452;2023-12-20T13:26:41;4.80;99.90
25332;DHT22;13284;52.748;13.452;2023-12-20T13:29:07;4.80;99.90
25332;DHT22;13284;52.748;13.452;2023-12-20T13:31:33;4.80;99.90
25332;DHT22;13284;52.748;13.452;2023-12-20T13:33:59;4.90;99.90
25332;DHT22;13284;52.748;13.452;2023-12-20T13:36:26;4.90;99.90
25332;DHT22;13284;52.748;13.452;2023-12-20T13:38:51;5.00;99.90
25332;DHT22;13284;52.748;13.452;2023-12-20T13:41:18;5.10;99.90
25332;DHT22;13284;52.748;13.452;2023-12-20T13:43:44;5.10;99.90
25332;DHT22;13284;52.748;13.452;2023-12-20T13:46:11;5.20;99.90
25332;DHT22;13284;52.748;13.452;2023-12-20T13:48:36;5.40;99.90
25332;DHT22;13284;52.748;13.452;2023-12-20T13:51:03;5.50;99.90
25332;DHT22;13284;52.748;13.452;2023-12-20T13:53:29;5.60;99.90
25332;DHT22;13284;52.748;13.452;2023-12-20T13:55:55;5.60;99.90
25332;DHT22;13284;52.748;13.452;2023-12-20T13:58:20;5.60;99.90
25332;DHT22;13284;52.748;13.452;2023-12-20T14:00:46;5.60;99.90
25332;DHT22;13284;52.748;13.452;2023-12-20T14:03:12;5.70;99.90
25332;DHT22;13284;52.748;13.452;2023-12-20T14:05:38;5.80;99.90
25332;DHT22;13284;52.748;13.452;2023-12-20T14:08:04;5.80;99.90
25332;DHT22;13284;52.748;13.452;2023-12-20T14:10:30;5.90;99.90
25332;DHT22;13284;52.748;13.452;2023-12-20T14:12:56;6.00;99.90
25332;DHT22;13284;52.748;13.452;2023-12-20T14:15:22;6.00;99.90
25332;DHT22;13284;52.748;13.452;2023-12-20T14:17:50;5.80;99.90
25332;DHT22;13284;52.748;13.452;2023-12-20T14:20:16;5.60;99.90
25332;DHT22;13284;52.748;13.452;2023-12-20T14:22:43;5.60;99.90
25332;DHT22;13284;52.748;13.452;2023-12-20T14:25:13;5.60;99.90
25332;DHT22;13284;52.748;13.452;2023-12-20T14:27:40;5.60;99.90
25332;DHT22;13284;52.748;13.452;2023-12-20T14:30:06;5.60;99.90
25332;DHT22;13284;52.748;13.452;2023-12-20T14:32:35;5.60;99.90
25332;DHT22;13284;52.748;13.452;2023-12-20T14:35:05;5.60;99.90
25332;DHT22;13284;52.748;13.452;2023-12-20T14:37:30;5.60;99.90
25332;DHT22;13284;52.748;13.452;2023-12-20T14:39:56;5.60;99.90
25332;DHT22;13284;52.748;13.452;2023-12-20T14:42:27;5.50;99.90
25332;DHT22;13284;52.748;13.452;2023-12-20T14:44:53;5.50;99.90
25332;DHT22;13284;52.748;13.452;2023-12-20T14:47:20;5.10;99.90
25332;DHT22;13284;52.748;13.452;2023-12-20T14:49:46;4.60;99.90
25332;DHT22;13284;52.748;13.452;2023-12-20T14:52:13;4.30;99.90
25332;DHT22;13284;52.748;13.452;2023-12-20T14:54:39;4.20;99.90
25332;DHT22;13284;52.748;13.452;2023-12-20T14:57:07;4.40;99.90
25332;DHT22;13284;52.748;13.452;2023-12-20T14:59:33;4.50;99.90
25332;DHT22;13284;52.748;13.452;2023-12-20T15:01:59;4.50;99.90
25332;DHT22;13284;52.748;13.452;2023-12-20T15:04:25;4.60;99.90
25332;DHT22;13284;52.748;13.452;2023-12-20T15:06:54;4.60;99.90
25332;DHT22;13284;52.748;13.452;2023-12-20T15:09:21;4.60;99.90
25332;DHT22;13284;52.748;13.452;2023-12-20T15:11:46;4.60;99.90
25332;DHT22;13284;52.748;13.452;2023-12-20T15:14:12;4.60;99.90
25332;DHT22;13284;52.748;13.452;2023-12-20T15:16:43;4.60;99.90
25332;DHT22;13284;52.748;13.452;2023-12-20T15:19:09;4.70;99.90
25332;DHT22;13284;52.748;13.452;2023-12-20T15:21:35;4.70;99.90
25332;DHT22;13284;52.748;13.452;2023-12-20T15:24:05;4.70;99.90
25332;DHT22;13284;52.748;13.452;2023-12-20T15:26:38;4.80;99.90
25332;DHT22;13284;52.748;13.452;2023-12-20T15:29:04;4.80;99.90
25332;DHT22;13284;52.748;13.452;2023-12-20T15:31:30;4.70;99.90